sensor_id;sensor_type;location;lat;lon;timestamp;pressure;altitude;pressure_sealevel;temperature;humidity
12664;BME280;6396;58.490;15.528;2023-05-24T00:01:36;100926.41;;;14.52;100.00
12664;BME280;6396;58.490;15.528;2023-05-24T00:04:03;100852.47;;;14.15;100.00
12664;BME280;6396;58.490;15.528;2023-05-24T00:06:29;100658.53;;;13.03;100.00
12664;BME280;6396;58.490;15.528;2023-05-24T00:08:59;100873.97;;;13.85;100.00
12664;BME280;6396;58.490;15.528;2023-05-24T00:11:26;100072.22;;;9.44;100.00
12664;BME280;6396;58.490;15.528;2023-05-24T00:13:53;100320.50;;;10.74;100.00
12664;BME280;6396;58.490;15.528;2023-05-24T00:16:21;100935.94;;;14.57;100.00
12664;BME280;6396;58.490;15.528;2023-05-24T00:18:48;100908.88;;;14.48;100.00
12664;BME280;6396;58.490;15.528;2023-05-24T00:21:16;100856.19;;;14.11;100.00
12664;BME280;6396;58.490;15.528;2023-05-24T00:23:43;100923.81;;;14.50;100.00
12664;BME280;6396;58.490;15.528;2023-05-24T00:26:10;100521.53;;;12.05;100.00
12664;BME280;6396;58.490;15.528;2023-05-24T00:28:36;100583.31;;;12.30;100.00
12664;BME280;6396;58.490;15.528;2023-05-24T00:31:03;100846.72;;;13.80;100.00
12664;BME280;6396;58.490;15.528;2023-05-24T00:33:32;100930.44;;;14.39;100.00
12664;BME280;6396;58.490;15.528;2023-05-24T00:35:59;100781.16;;;13.59;100.00
12664;BME280;6396;58.490;15.528;2023-05-24T00:38:26;100958.00;;;14.36;100.00
12664;BME280;6396;58.490;15.528;2023-05-24T00:40:53;100940.38;;;14.34;100.00
12664;BME280;6396;58.490;15.528;2023-05-24T00:43:20;100937.22;;;14.23;100.00
12664;BME280;6396;58.490;15.528;2023-05-24T00:45:47;100889.78;;;13.88;100.00
12664;BME280;6396;58.490;15.528;2023-05-24T00:48:20;100935.69;;;14.16;100.00
12664;BME280;6396;58.490;15.528;2023-05-24T00:50:53;100931.25;;;14.16;100.00
12664;BME280;6396;58.490;15.528;2023-05-24T00:53:19;100968.63;;;14.10;100.00
12664;BME280;6396;58.490;15.528;2023-05-24T00:55:47;100579.66;;;12.08;100.00
12664;BME280;6396;58.490;15.528;2023-05-24T00:58:15;100937.25;;;14.21;100.00
12664;BME280;6396;58.490;15.528;2023-05-24T01:00:42;101006.28;;;14.23;100.00
12664;BME280;6396;58.490;15.528;2023-05-24T01:03:11;100838.53;;;13.61;100.00
12664;BME280;6396;58.490;15.528;2023-05-24T01:05:38;100866.66;;;13.91;100.00
12664;BME280;6396;58.490;15.528;2023-05-24T01:08:14;100937.50;;;14.40;100.00
12664;BME280;6396;58.490;15.528;2023-05-24T01:10:51;100950.47;;;14.23;100.00
12664;BME280;6396;58.490;15.528;2023-05-24T01:13:25;100926.09;;;14.12;100.00
12664;BME280;6396;58.490;15.528;2023-05-24T01:15:58;100854.19;;;13.69;100.00
12664;BME280;6396;58.490;15.528;2023-05-24T01:18:30;100846.41;;;13.64;100.00
12664;BME280;6396;58.490;15.528;2023-05-24T01:21:05;100920.88;;;13.84;100.00
12664;BME280;6396;58.490;15.528;2023-05-24T01:23:45;100936.50;;;13.93;100.00
12664;BME280;6396;58.490;15.528;2023-05-24T01:26:23;100933.91;;;13.92;100.00
12664;BME280;6396;58.490;15.528;2023-05-24T01:28:55;100941.88;;;13.92;100.00
12664;BME280;6396;58.490;15.528;2023-05-24T01:31:22;100488.28;;;11.15;100.00
12664;BME280;6396;58.490;15.528;2023-05-24T01:33:49;100941.28;;;13.84;100.00
12664;BME280;6396;58.490;15.528;2023-05-24T01:36:16;100847.81;;;13.23;100.00
12664;BME280;6396;58.490;15.528;2023-05-24T01:38:43;100842.56;;;12.94;100.00
12664;BME280;6396;58.490;15.528;2023-05-24T01:41:20;100951.31;;;13.74;100.00
12664;BME280;6396;58.490;15.528;2023-05-24T01:43:58;100787.78;;;12.67;100.00
12664;BME280;6396;58.490;15.528;2023-05-24T01:46:34;100776.84;;;12.50;100.00
12664;BME280;6396;58.490;15.528;2023-05-24T01:49:08;100955.63;;;13.51;100.00
12664;BME280;6396;58.490;15.528;2023-05-24T01:51:40;101054.88;;;13.45;100.00
12664;BME280;6396;58.490;15.528;2023-05-24T01:54:11;100959.41;;;13.43;100.00
12664;BME280;6396;58.490;15.528;2023-05-24T01:56:40;100962.28;;;13.37;100.00
12664;BME280;6396;58.490;15.528;2023-05-24T01:59:10;100632.91;;;11.39;100.00
12664;BME280;6396;58.490;15.528;2023-05-24T02:01:38;100858.44;;;12.67;100.00
12664;BME280;6396;58.490;15.528;2023-05-24T02:04:06;100956.47;;;13.25;100.00
12664;BME280;6396;58.490;15.528;2023-05-24T02:06:33;100971.50;;;13.26;100.00
12664;BME280;6396;58.490;15.528;2023-05-24T02:09:00;100832.84;;;12.38;100.00
12664;BME280;6396;58.490;15.528;2023-05-24T02:11:27;100779.75;;;12.13;100.00
12664;BME280;6396;58.490;15.528;2023-05-24T02:13:53;100982.88;;;13.29;100.00
12664;BME280;6396;58.490;15.528;2023-05-24T02:16:22;100807.97;;;12.14;100.00
12664;BME280;6396;58.490;15.528;2023-05-24T02:18:49;101006.88;;;13.25;100.00
12664;BME280;6396;58.490;15.528;2023-05-24T02:21:16;100912.47;;;12.90;100.00
12664;BME280;6396;58.490;15.528;2023-05-24T02:23:42;100893.38;;;12.79;100.00
12664;BME280;6396;58.490;15.528;2023-05-24T02:26:10;101002.28;;;13.30;100.00
12664;BME280;6396;58.490;15.528;2023-05-24T02:28:38;100968.91;;;13.23;100.00
12664;BME280;6396;58.490;15.528;2023-05-24T02:31:06;101002.66;;;13.18;100.00
12664;BME280;6396;58.490;15.528;2023-05-24T02:33:34;100823.25;;;12.34;100.00
12664;BME280;6396;58.490;15.528;2023-05-24T02:36:01;100923.75;;;12.97;100.00
12664;BME280;6396;58.490;15.528;2023-05-24T02:38:28;100800.25;;;12.36;100.00
12664;BME280;6396;58.490;15.528;2023-05-24T02:40:56;100967.47;;;13.40;100.00
12664;BME280;6396;58.490;15.528;2023-05-24T02:43:22;100702.28;;;11.79;100.00
12664;BME280;6396;58.490;15.528;2023-05-24T02:45:49;100837.69;;;12.53;100.00
12664;BME280;6396;58.490;15.528;2023-05-24T02:48:16;100919.50;;;12.91;100.00
12664;BME280;6396;58.490;15.528;2023-05-24T02:50:44;100950.69;;;13.12;100.00
12664;BME280;6396;58.490;15.528;2023-05-24T02:53:11;100969.31;;;13.38;100.00
12664;BME280;6396;58.490;15.528;2023-05-24T02:55:38;100808.53;;;12.53;100.00
12664;BME280;6396;58.490;15.528;2023-05-24T02:58:04;100967.19;;;13.50;100.00
12664;BME280;6396;58.490;15.528;2023-05-24T03:00:32;100975.97;;;13.52;100.00
12664;BME280;6396;58.490;15.528;2023-05-24T03:03:00;100968.88;;;13.52;100.00
12664;BME280;6396;58.490;15.528;2023-05-24T03:05:27;100973.50;;;13.45;100.00
12664;BME280;6396;58.490;15.528;2023-05-24T03:07:55;100971.81;;;13.43;100.00
12664;BME280;6396;58.490;15.528;2023-05-24T03:10:22;100994.22;;;13.34;100.00
12664;BME280;6396;58.490;15.528;2023-05-24T03:12:49;100980.13;;;13.32;100.00
12664;BME280;6396;58.490;15.528;2023-05-24T03:15:16;100943.00;;;13.03;100.00
12664;BME280;6396;58.490;15.528;2023-05-24T03:17:43;100931.75;;;12.95;100.00
12664;BME280;6396;58.490;15.528;2023-05-24T03:20:10;100850.47;;;12.39;100.00
12664;BME280;6396;58.490;15.528;2023-05-24T03:22:37;100975.03;;;13.25;100.00
12664;BME280;6396;58.490;15.528;2023-05-24T03:25:06;100870.97;;;12.62;100.00
12664;BME280;6396;58.490;15.528;2023-05-24T03:27:34;100967.97;;;13.25;100.00
12664;BME280;6396;58.490;15.528;2023-05-24T03:30:00;100919.44;;;12.94;100.00
12664;BME280;6396;58.490;15.528;2023-05-24T03:32:27;100960.44;;;13.12;100.00
12664;BME280;6396;58.490;15.528;2023-05-24T03:34:54;100980.22;;;13.29;100.00
12664;BME280;6396;58.490;15.528;2023-05-24T03:37:23;100969.78;;;13.23;100.00
12664;BME280;6396;58.490;15.528;2023-05-24T03:40:07;101012.78;;;13.34;100.00
12664;BME280;6396;58.490;15.528;2023-05-24T03:42:36;100287.50;;;9.40;100.00
12664;BME280;6396;58.490;15.528;2023-05-24T03:45:05;100836.69;;;12.57;100.00
12664;BME280;6396;58.490;15.528;2023-05-24T03:47:32;100878.34;;;12.52;100.00
12664;BME280;6396;58.490;15.528;2023-05-24T03:50:01;101008.09;;;13.42;100.00
12664;BME280;6396;58.490;15.528;2023-05-24T03:52:38;100713.25;;;11.35;100.00
12664;BME280;6396;58.490;15.528;2023-05-24T03:55:21;100978.66;;;13.50;100.00
12664;BME280;6396;58.490;15.528;2023-05-24T03:57:54;100604.63;;;10.81;100.00
12664;BME280;6396;58.490;15.528;2023-05-24T04:00:43;100980.22;;;13.57;100.00
12664;BME280;6396;58.490;15.528;2023-05-24T04:03:12;100220.34;;;9.23;100.00
12664;BME280;6396;58.490;15.528;2023-05-24T04:05:41;100249.25;;;8.93;100.00
12664;BME280;6396;58.490;15.528;2023-05-24T04:08:10;100801.91;;;12.68;100.00
12664;BME280;6396;58.490;15.528;2023-05-24T04:10:40;100709.13;;;12.15;100.00
12664;BME280;6396;58.490;15.528;2023-05-24T04:13:10;101018.63;;;13.72;100.00
12664;BME280;6396;58.490;15.528;2023-05-24T04:15:36;100970.72;;;13.50;100.00
12664;BME280;6396;58.490;15.528;2023-05-24T04:18:04;100912.16;;;13.28;100.00
12664;BME280;6396;58.490;15.528;2023-05-24T04:20:31;101000.78;;;13.77;100.00
12664;BME280;6396;58.490;15.528;2023-05-24T04:22:57;100992.59;;;13.83;100.00
12664;BME280;6396;58.490;15.528;2023-05-24T04:25:24;100942.19;;;13.57;100.00
12664;BME280;6396;58.490;15.528;2023-05-24T04:27:53;101047.91;;;13.96;100.00
12664;BME280;6396;58.490;15.528;2023-05-24T04:30:20;101000.88;;;14.00;100.00
12664;BME280;6396;58.490;15.528;2023-05-24T04:32:47;100862.03;;;13.21;100.00
12664;BME280;6396;58.490;15.528;2023-05-24T04:35:14;101002.41;;;14.07;100.00
12664;BME280;6396;58.490;15.528;2023-05-24T04:37:41;100998.78;;;14.09;100.00
12664;BME280;6396;58.490;15.528;2023-05-24T04:40:09;100947.66;;;13.78;100.00
12664;BME280;6396;58.490;15.528;2023-05-24T04:42:36;100615.94;;;11.77;100.00
12664;BME280;6396;58.490;15.528;2023-05-24T04:45:06;101006.16;;;14.27;100.00
12664;BME280;6396;58.490;15.528;2023-05-24T04:47:33;101005.16;;;14.30;100.00
12664;BME280;6396;58.490;15.528;2023-05-24T04:49:59;101031.53;;;14.36;100.00
12664;BME280;6396;58.490;15.528;2023-05-24T04:52:26;101018.13;;;14.39;100.00
12664;BME280;6396;58.490;15.528;2023-05-24T04:54:54;101002.50;;;14.30;100.00
12664;BME280;6396;58.490;15.528;2023-05-24T04:57:22;101006.81;;;14.34;100.00
12664;BME280;6396;58.490;15.528;2023-05-24T04:59:49;101017.63;;;14.52;100.00
12664;BME280;6396;58.490;15.528;2023-05-24T05:02:17;100886.53;;;13.80;100.00
12664;BME280;6396;58.490;15.528;2023-05-24T05:04:44;100802.41;;;13.32;100.00
12664;BME280;6396;58.490;15.528;2023-05-24T05:07:11;101013.72;;;14.63;100.00
12664;BME280;6396;58.490;15.528;2023-05-24T05:09:38;100884.81;;;13.53;100.00
12664;BME280;6396;58.490;15.528;2023-05-24T05:12:05;101049.41;;;14.80;100.00
12664;BME280;6396;58.490;15.528;2023-05-24T05:14:32;100733.91;;;12.94;100.00
12664;BME280;6396;58.490;15.528;2023-05-24T05:16:59;101052.03;;;14.82;100.00
12664;BME280;6396;58.490;15.528;2023-05-24T05:19:28;101080.53;;;14.77;100.00
12664;BME280;6396;58.490;15.528;2023-05-24T05:21:55;101025.72;;;14.97;100.00
12664;BME280;6396;58.490;15.528;2023-05-24T05:24:21;101035.03;;;15.09;100.00
12664;BME280;6396;58.490;15.528;2023-05-24T05:26:48;101035.66;;;15.15;100.00
12664;BME280;6396;58.490;15.528;2023-05-24T05:29:15;100775.59;;;13.65;100.00
12664;BME280;6396;58.490;15.528;2023-05-24T05:31:42;100947.81;;;14.72;100.00
12664;BME280;6396;58.490;15.528;2023-05-24T05:34:09;100817.59;;;14.01;100.00
12664;BME280;6396;58.490;15.528;2023-05-24T05:36:37;101102.09;;;15.41;100.00
12664;BME280;6396;58.490;15.528;2023-05-24T05:39:05;101000.75;;;15.01;100.00
12664;BME280;6396;58.490;15.528;2023-05-24T05:41:35;101117.66;;;15.52;100.00
12664;BME280;6396;58.490;15.528;2023-05-24T05:44:02;100651.00;;;13.15;100.00
12664;BME280;6396;58.490;15.528;2023-05-24T05:46:28;100717.69;;;13.53;100.00
12664;BME280;6396;58.490;15.528;2023-05-24T05:48:55;101052.97;;;15.72;100.00
12664;BME280;6396;58.490;15.528;2023-05-24T05:51:22;101052.84;;;15.75;100.00
12664;BME280;6396;58.490;15.528;2023-05-24T05:53:50;100488.81;;;12.32;100.00
12664;BME280;6396;58.490;15.528;2023-05-24T05:56:17;101043.03;;;15.55;100.00
12664;BME280;6396;58.490;15.528;2023-05-24T05:58:44;100970.97;;;15.36;100.00
12664;BME280;6396;58.490;15.528;2023-05-24T06:01:11;100943.13;;;15.23;100.00
12664;BME280;6396;58.490;15.528;2023-05-24T06:03:37;101052.78;;;15.98;100.00
12664;BME280;6396;58.490;15.528;2023-05-24T06:06:04;100971.75;;;15.61;100.00
12664;BME280;6396;58.490;15.528;2023-05-24T06:08:31;101069.75;;;16.17;100.00
12664;BME280;6396;58.490;15.528;2023-05-24T06:11:00;101053.50;;;16.23;100.00
12664;BME280;6396;58.490;15.528;2023-05-24T06:13:27;101068.69;;;16.21;100.00
12664;BME280;6396;58.490;15.528;2023-05-24T06:15:55;101055.38;;;16.21;100.00
12664;BME280;6396;58.490;15.528;2023-05-24T06:18:23;101078.16;;;16.28;100.00
12664;BME280;6396;58.490;15.528;2023-05-24T06:20:49;101063.50;;;16.38;100.00
12664;BME280;6396;58.490;15.528;2023-05-24T06:23:16;101079.06;;;16.48;100.00
12664;BME280;6396;58.490;15.528;2023-05-24T06:25:43;100986.53;;;16.10;100.00
12664;BME280;6396;58.490;15.528;2023-05-24T06:28:13;101081.03;;;16.65;100.00
12664;BME280;6396;58.490;15.528;2023-05-24T06:30:39;101093.25;;;16.70;100.00
12664;BME280;6396;58.490;15.528;2023-05-24T06:33:06;100952.22;;;16.03;100.00
12664;BME280;6396;58.490;15.528;2023-05-24T06:35:33;101086.16;;;16.90;100.00
12664;BME280;6396;58.490;15.528;2023-05-24T06:37:59;101039.34;;;16.83;100.00
12664;BME280;6396;58.490;15.528;2023-05-24T06:40:26;100906.69;;;16.09;100.00
12664;BME280;6396;58.490;15.528;2023-05-24T06:42:53;101033.53;;;16.93;100.00
12664;BME280;6396;58.490;15.528;2023-05-24T06:45:21;101080.59;;;17.33;100.00
12664;BME280;6396;58.490;15.528;2023-05-24T06:47:48;100948.34;;;16.70;100.00
12664;BME280;6396;58.490;15.528;2023-05-24T06:50:15;100949.88;;;16.76;100.00
12664;BME280;6396;58.490;15.528;2023-05-24T06:52:42;101036.56;;;17.41;100.00
12664;BME280;6396;58.490;15.528;2023-05-24T06:55:09;101079.88;;;17.85;100.00
12664;BME280;6396;58.490;15.528;2023-05-24T06:57:36;101078.44;;;17.97;100.00
12664;BME280;6396;58.490;15.528;2023-05-24T07:00:03;101105.28;;;18.12;100.00
12664;BME280;6396;58.490;15.528;2023-05-24T07:02:35;101081.44;;;18.25;100.00
12664;BME280;6396;58.490;15.528;2023-05-24T07:05:02;101091.13;;;18.27;100.00
12664;BME280;6396;58.490;15.528;2023-05-24T07:07:30;101044.88;;;18.44;100.00
12664;BME280;6396;58.490;15.528;2023-05-24T07:09:57;101085.06;;;19.09;100.00
12664;BME280;6396;58.490;15.528;2023-05-24T07:12:24;101077.59;;;19.48;100.00
12664;BME280;6396;58.490;15.528;2023-05-24T07:14:51;101094.38;;;19.67;100.00
12664;BME280;6396;58.490;15.528;2023-05-24T07:17:20;101092.09;;;19.91;100.00
12664;BME280;6396;58.490;15.528;2023-05-24T07:19:48;101085.97;;;20.05;100.00
12664;BME280;6396;58.490;15.528;2023-05-24T07:22:15;101073.69;;;20.00;100.00
12664;BME280;6396;58.490;15.528;2023-05-24T07:24:42;100856.91;;;18.57;100.00
12664;BME280;6396;58.490;15.528;2023-05-24T07:27:09;101067.66;;;19.81;100.00
12664;BME280;6396;58.490;15.528;2023-05-24T07:29:35;101065.16;;;19.94;100.00
12664;BME280;6396;58.490;15.528;2023-05-24T07:32:03;101085.34;;;20.15;100.00
12664;BME280;6396;58.490;15.528;2023-05-24T07:34:29;101052.56;;;20.10;100.00
12664;BME280;6396;58.490;15.528;2023-05-24T07:36:58;101103.13;;;20.47;100.00
12664;BME280;6396;58.490;15.528;2023-05-24T07:39:25;101080.50;;;20.81;100.00
12664;BME280;6396;58.490;15.528;2023-05-24T07:41:52;101114.94;;;21.18;100.00
12664;BME280;6396;58.490;15.528;2023-05-24T07:44:19;101034.00;;;21.51;92.56
12664;BME280;6396;58.490;15.528;2023-05-24T07:46:46;100982.31;;;22.00;75.15
12664;BME280;6396;58.490;15.528;2023-05-24T07:49:13;101071.50;;;23.61;72.76
12664;BME280;6396;58.490;15.528;2023-05-24T07:51:40;101051.34;;;24.26;62.58
12664;BME280;6396;58.490;15.528;2023-05-24T07:54:08;100963.59;;;24.88;57.60
12664;BME280;6396;58.490;15.528;2023-05-24T07:56:35;101020.75;;;26.04;57.07
12664;BME280;6396;58.490;15.528;2023-05-24T07:59:02;100902.22;;;25.76;48.63
12664;BME280;6396;58.490;15.528;2023-05-24T08:01:29;101075.69;;;27.20;48.37
12664;BME280;6396;58.490;15.528;2023-05-24T08:03:56;101080.22;;;27.70;46.37
12664;BME280;6396;58.490;15.528;2023-05-24T08:06:22;101045.84;;;27.90;44.80
12664;BME280;6396;58.490;15.528;2023-05-24T08:08:49;101032.19;;;28.20;42.27
12664;BME280;6396;58.490;15.528;2023-05-24T08:11:18;101090.44;;;28.65;41.00
12664;BME280;6396;58.490;15.528;2023-05-24T08:13:45;100990.84;;;28.26;40.90
12664;BME280;6396;58.490;15.528;2023-05-24T08:16:12;100954.25;;;28.20;40.29
12664;BME280;6396;58.490;15.528;2023-05-24T08:18:39;101065.94;;;29.49;39.36
12664;BME280;6396;58.490;15.528;2023-05-24T08:21:06;101036.94;;;29.58;40.24
12664;BME280;6396;58.490;15.528;2023-05-24T08:23:33;101044.41;;;29.46;38.30
12664;BME280;6396;58.490;15.528;2023-05-24T08:26:00;101065.47;;;30.08;39.06
12664;BME280;6396;58.490;15.528;2023-05-24T08:28:29;101024.19;;;30.03;38.81
12664;BME280;6396;58.490;15.528;2023-05-24T08:30:55;100885.22;;;29.50;37.44
12664;BME280;6396;58.490;15.528;2023-05-24T08:33:23;100963.22;;;29.87;37.43
12664;BME280;6396;58.490;15.528;2023-05-24T08:35:50;100966.19;;;29.48;36.69
12664;BME280;6396;58.490;15.528;2023-05-24T08:38:16;101092.22;;;30.57;37.11
12664;BME280;6396;58.490;15.528;2023-05-24T08:40:43;101059.66;;;30.56;34.79
12664;BME280;6396;58.490;15.528;2023-05-24T08:43:11;101004.13;;;30.39;36.02
12664;BME280;6396;58.490;15.528;2023-05-24T08:45:39;101030.78;;;30.71;34.68
12664;BME280;6396;58.490;15.528;2023-05-24T08:48:06;100972.09;;;30.67;34.24
12664;BME280;6396;58.490;15.528;2023-05-24T08:50:33;101071.91;;;31.38;34.73
12664;BME280;6396;58.490;15.528;2023-05-24T08:53:01;100951.16;;;30.67;34.90
12664;BME280;6396;58.490;15.528;2023-05-24T08:55:28;101074.16;;;31.51;33.91
12664;BME280;6396;58.490;15.528;2023-05-24T08:57:56;101071.31;;;31.52;34.32
12664;BME280;6396;58.490;15.528;2023-05-24T09:00:23;100998.47;;;31.02;32.16
12664;BME280;6396;58.490;15.528;2023-05-24T09:02:52;101043.22;;;31.34;33.77
12664;BME280;6396;58.490;15.528;2023-05-24T09:05:19;101070.09;;;31.55;32.27
12664;BME280;6396;58.490;15.528;2023-05-24T09:07:48;100887.16;;;30.28;32.84
12664;BME280;6396;58.490;15.528;2023-05-24T09:10:18;100992.91;;;30.86;30.77
12664;BME280;6396;58.490;15.528;2023-05-24T09:12:49;101032.97;;;30.85;30.96
12664;BME280;6396;58.490;15.528;2023-05-24T09:15:17;100651.25;;;28.53;31.46
12664;BME280;6396;58.490;15.528;2023-05-24T09:17:44;100959.22;;;30.51;30.84
12664;BME280;6396;58.490;15.528;2023-05-24T09:20:13;101066.66;;;31.19;31.67
12664;BME280;6396;58.490;15.528;2023-05-24T09:22:41;101078.47;;;31.28;31.70
12664;BME280;6396;58.490;15.528;2023-05-24T09:25:09;101068.88;;;31.24;31.93
12664;BME280;6396;58.490;15.528;2023-05-24T09:27:36;101057.88;;;31.33;32.45
12664;BME280;6396;58.490;15.528;2023-05-24T09:30:07;101062.84;;;31.38;31.69
12664;BME280;6396;58.490;15.528;2023-05-24T09:32:34;101013.19;;;31.09;31.52
12664;BME280;6396;58.490;15.528;2023-05-24T09:35:01;101057.88;;;31.33;31.33
12664;BME280;6396;58.490;15.528;2023-05-24T09:37:29;101085.09;;;31.25;31.84
12664;BME280;6396;58.490;15.528;2023-05-24T09:40:00;101016.34;;;30.96;28.99
12664;BME280;6396;58.490;15.528;2023-05-24T09:42:27;101064.28;;;30.99;30.09
12664;BME280;6396;58.490;15.528;2023-05-24T09:45:01;101060.56;;;31.00;29.90
12664;BME280;6396;58.490;15.528;2023-05-24T09:47:29;101058.72;;;30.83;30.42
12664;BME280;6396;58.490;15.528;2023-05-24T09:49:56;100947.97;;;30.11;30.81
12664;BME280;6396;58.490;15.528;2023-05-24T09:52:23;101059.09;;;30.70;29.61
12664;BME280;6396;58.490;15.528;2023-05-24T09:54:51;101059.81;;;30.54;29.75
12664;BME280;6396;58.490;15.528;2023-05-24T09:57:18;100958.16;;;29.92;30.76
12664;BME280;6396;58.490;15.528;2023-05-24T09:59:48;100973.75;;;29.99;30.23
12664;BME280;6396;58.490;15.528;2023-05-24T10:02:15;100750.78;;;28.54;29.36
12664;BME280;6396;58.490;15.528;2023-05-24T10:04:44;101054.59;;;30.43;30.07
12664;BME280;6396;58.490;15.528;2023-05-24T10:07:11;101058.03;;;30.28;28.88
12664;BME280;6396;58.490;15.528;2023-05-24T10:09:39;101050.56;;;30.03;29.36
12664;BME280;6396;58.490;15.528;2023-05-24T10:12:07;101060.34;;;29.78;29.04
12664;BME280;6396;58.490;15.528;2023-05-24T10:14:36;100978.13;;;29.65;30.50
12664;BME280;6396;58.490;15.528;2023-05-24T10:17:04;100994.75;;;29.72;31.04
12664;BME280;6396;58.490;15.528;2023-05-24T10:19:31;101046.94;;;30.12;31.22
12664;BME280;6396;58.490;15.528;2023-05-24T10:21:58;101049.88;;;30.18;31.13
12664;BME280;6396;58.490;15.528;2023-05-24T10:24:34;101055.25;;;30.10;29.35
12664;BME280;6396;58.490;15.528;2023-05-24T10:27:04;101042.72;;;30.00;30.53
12664;BME280;6396;58.490;15.528;2023-05-24T10:29:40;101007.13;;;29.84;30.97
12664;BME280;6396;58.490;15.528;2023-05-24T10:32:11;101047.88;;;30.20;31.91
12664;BME280;6396;58.490;15.528;2023-05-24T10:34:39;101025.59;;;29.90;31.88
12664;BME280;6396;58.490;15.528;2023-05-24T10:37:07;101001.50;;;29.85;31.28
12664;BME280;6396;58.490;15.528;2023-05-24T10:39:34;100664.72;;;27.81;31.96
12664;BME280;6396;58.490;15.528;2023-05-24T10:42:02;100844.69;;;28.76;32.03
12664;BME280;6396;58.490;15.528;2023-05-24T10:44:29;100934.50;;;29.30;31.68
12664;BME280;6396;58.490;15.528;2023-05-24T10:47:08;100963.84;;;29.53;33.91
12664;BME280;6396;58.490;15.528;2023-05-24T10:49:35;100851.34;;;28.91;32.25
12664;BME280;6396;58.490;15.528;2023-05-24T10:52:06;101046.34;;;29.91;30.29
12664;BME280;6396;58.490;15.528;2023-05-24T10:54:33;100921.84;;;29.38;32.25
12664;BME280;6396;58.490;15.528;2023-05-24T10:57:01;100693.00;;;27.88;32.79
12664;BME280;6396;58.490;15.528;2023-05-24T10:59:31;100974.47;;;29.56;31.29
12664;BME280;6396;58.490;15.528;2023-05-24T11:02:02;100678.72;;;27.77;31.87
12664;BME280;6396;58.490;15.528;2023-05-24T11:04:32;101072.13;;;29.69;32.62
12664;BME280;6396;58.490;15.528;2023-05-24T11:07:03;100934.25;;;29.23;32.48
12664;BME280;6396;58.490;15.528;2023-05-24T11:09:31;100574.22;;;27.17;33.79
12664;BME280;6396;58.490;15.528;2023-05-24T11:12:00;100885.19;;;28.79;32.51
12664;BME280;6396;58.490;15.528;2023-05-24T11:14:29;101024.34;;;29.84;34.08
12664;BME280;6396;58.490;15.528;2023-05-24T11:16:57;100967.59;;;29.52;34.13
12664;BME280;6396;58.490;15.528;2023-05-24T11:19:30;100923.97;;;29.17;33.54
12664;BME280;6396;58.490;15.528;2023-05-24T11:22:00;100989.63;;;29.59;33.38
12664;BME280;6396;58.490;15.528;2023-05-24T11:24:28;101010.25;;;29.61;34.69
12664;BME280;6396;58.490;15.528;2023-05-24T11:26:56;101008.28;;;29.54;33.49
12664;BME280;6396;58.490;15.528;2023-05-24T11:29:23;100902.91;;;28.83;34.48
12664;BME280;6396;58.490;15.528;2023-05-24T11:31:51;101003.94;;;29.61;34.93
12664;BME280;6396;58.490;15.528;2023-05-24T11:34:18;100986.84;;;29.14;35.02
12664;BME280;6396;58.490;15.528;2023-05-24T11:36:45;100966.50;;;29.09;35.16
12664;BME280;6396;58.490;15.528;2023-05-24T11:39:15;100996.88;;;29.14;35.29
12664;BME280;6396;58.490;15.528;2023-05-24T11:41:42;100941.22;;;28.62;33.43
12664;BME280;6396;58.490;15.528;2023-05-24T11:44:10;100955.56;;;28.91;32.30
12664;BME280;6396;58.490;15.528;2023-05-24T11:46:38;100981.69;;;29.11;31.91
12664;BME280;6396;58.490;15.528;2023-05-24T11:49:06;100926.44;;;28.65;34.74
12664;BME280;6396;58.490;15.528;2023-05-24T11:51:33;100979.25;;;29.08;34.96
12664;BME280;6396;58.490;15.528;2023-05-24T11:54:01;100979.25;;;29.08;35.20
12664;BME280;6396;58.490;15.528;2023-05-24T11:56:30;100919.31;;;28.64;35.71
12664;BME280;6396;58.490;15.528;2023-05-24T11:59:08;100973.00;;;28.98;35.45
12664;BME280;6396;58.490;15.528;2023-05-24T12:01:35;101004.81;;;28.88;35.36
12664;BME280;6396;58.490;15.528;2023-05-24T12:04:04;100844.75;;;28.20;35.51
12664;BME280;6396;58.490;15.528;2023-05-24T12:06:36;100554.13;;;26.53;34.71
12664;BME280;6396;58.490;15.528;2023-05-24T12:09:04;100922.19;;;28.52;34.48
12664;BME280;6396;58.490;15.528;2023-05-24T12:11:37;100964.50;;;28.65;35.11
12664;BME280;6396;58.490;15.528;2023-05-24T12:14:05;100958.81;;;28.58;34.14
12664;BME280;6396;58.490;15.528;2023-05-24T12:16:32;100965.78;;;28.61;34.29
12664;BME280;6396;58.490;15.528;2023-05-24T12:19:00;100844.75;;;27.82;34.55
12664;BME280;6396;58.490;15.528;2023-05-24T12:21:29;100966.22;;;28.46;32.55
12664;BME280;6396;58.490;15.528;2023-05-24T12:24:08;100958.81;;;28.29;33.56
12664;BME280;6396;58.490;15.528;2023-05-24T12:26:39;101001.44;;;28.38;33.27
12664;BME280;6396;58.490;15.528;2023-05-24T12:29:08;100897.94;;;28.13;34.87
12664;BME280;6396;58.490;15.528;2023-05-24T12:31:36;100950.47;;;28.50;34.86
12664;BME280;6396;58.490;15.528;2023-05-24T12:34:02;100666.41;;;26.79;36.06
12664;BME280;6396;58.490;15.528;2023-05-24T12:36:31;100932.81;;;28.17;36.75
12664;BME280;6396;58.490;15.528;2023-05-24T12:39:03;100941.22;;;28.33;36.25
12664;BME280;6396;58.490;15.528;2023-05-24T12:41:31;100859.19;;;27.82;37.20
12664;BME280;6396;58.490;15.528;2023-05-24T12:44:00;100411.56;;;25.07;36.67
12664;BME280;6396;58.490;15.528;2023-05-24T12:46:26;100946.09;;;28.20;36.55
12664;BME280;6396;58.490;15.528;2023-05-24T12:48:53;100935.41;;;28.09;36.52